AFL1841 UUEE-UGTB
Flight info
| Callsign | AFL1841 |
|---|---|
| Flight time | 2h 13m |
| Altitude | 37000 |
| Route | EMGAS3J EMGAS T828 NIBIM M54 GUSLI/N0456F370 M54 LAGAS |
| Aircraft | A320/M-SDE3FGHIRWY/LB1 |
Departure
| Time | 2026-04-22 11:01 |
|---|---|
| Airport | Sheremetyevo International Airport (UUEE) |
Arrival
| Time | 2026-04-22 13:15 |
|---|---|
| Airport | Tbilisi International Airport (UGTB) |
| Time | Latitude | Longitude | Altitude | Speed | Heading |
|---|---|---|---|---|---|
| 2026-04-22 10:46 | 55.97712 | 37.41189 | 639 ft | 0 kts | 346° |
| 2026-04-22 10:53 | 55.97705 | 37.41193 | 639 ft | 3 kts | 346° |
| 2026-04-22 10:54 | 55.97683 | 37.41202 | 642 ft | 3 kts | 347° |
| 2026-04-22 10:54 | 55.97662 | 37.41209 | 639 ft | 3 kts | 0° |
| 2026-04-22 10:54 | 55.97640 | 37.41204 | 644 ft | 3 kts | 25° |
| 2026-04-22 10:54 | 55.97626 | 37.41183 | 642 ft | 3 kts | 71° |
| 2026-04-22 10:55 | 55.97623 | 37.41170 | 645 ft | 0 kts | 75° |
| 2026-04-22 10:57 | 55.97631 | 37.41219 | 641 ft | 6 kts | 75° |
| 2026-04-22 10:57 | 55.97649 | 37.41335 | 645 ft | 13 kts | 74° |
| 2026-04-22 10:57 | 55.97677 | 37.41531 | 643 ft | 17 kts | 75° |
| 2026-04-22 10:57 | 55.97706 | 37.41724 | 646 ft | 15 kts | 75° |
| 2026-04-22 10:58 | 55.97731 | 37.41893 | 640 ft | 13 kts | 75° |
| 2026-04-22 10:58 | 55.97752 | 37.42040 | 642 ft | 11 kts | 77° |
| 2026-04-22 10:58 | 55.97712 | 37.42126 | 639 ft | 9 kts | 161° |
| 2026-04-22 10:58 | 55.97690 | 37.42214 | 641 ft | 10 kts | 80° |
| 2026-04-22 10:59 | 55.97713 | 37.42374 | 642 ft | 17 kts | 75° |
| 2026-04-22 10:59 | 55.97743 | 37.42576 | 639 ft | 15 kts | 75° |
| 2026-04-22 10:59 | 55.97762 | 37.42741 | 646 ft | 12 kts | 99° |
| 2026-04-22 10:59 | 55.97723 | 37.42799 | 642 ft | 11 kts | 161° |
| 2026-04-22 11:00 | 55.97654 | 37.42834 | 638 ft | 10 kts | 164° |
| 2026-04-22 11:00 | 55.97597 | 37.42792 | 642 ft | 6 kts | 253° |
| 2026-04-22 11:00 | 55.97564 | 37.42565 | 640 ft | 49 kts | 256° |
| 2026-04-22 11:00 | 55.97475 | 37.41975 | 641 ft | 95 kts | 255° |
| 2026-04-22 11:01 | 55.97256 | 37.40493 | 642 ft | 149 kts | 255° |
| 2026-04-22 11:01 | 55.96960 | 37.38629 | 1169 ft | 154 kts | 254° |
| 2026-04-22 11:01 | 55.96498 | 37.36900 | 1930 ft | 159 kts | 239° |
| 2026-04-22 11:01 | 55.95851 | 37.35186 | 2299 ft | 180 kts | 237° |
| 2026-04-22 11:02 | 55.95087 | 37.33239 | 2605 ft | 202 kts | 237° |
| 2026-04-22 11:02 | 55.94244 | 37.31108 | 3036 ft | 216 kts | 237° |
| 2026-04-22 11:02 | 55.93375 | 37.28905 | 3862 ft | 221 kts | 236° |
| 2026-04-22 11:02 | 55.92487 | 37.26650 | 4748 ft | 224 kts | 237° |
| 2026-04-22 11:03 | 55.91593 | 37.24370 | 5583 ft | 225 kts | 237° |
| 2026-04-22 11:03 | 55.90687 | 37.22049 | 6392 ft | 230 kts | 237° |
| 2026-04-22 11:03 | 55.89770 | 37.19688 | 7173 ft | 234 kts | 237° |
| 2026-04-22 11:03 | 55.88761 | 37.17307 | 7758 ft | 252 kts | 225° |
| 2026-04-22 11:04 | 55.87164 | 37.15732 | 8148 ft | 278 kts | 193° |
| 2026-04-22 11:04 | 55.85193 | 37.15503 | 8817 ft | 288 kts | 181° |
| 2026-04-22 11:04 | 55.83177 | 37.15461 | 9659 ft | 292 kts | 181° |
| 2026-04-22 11:04 | 55.81122 | 37.15434 | 10304 ft | 302 kts | 181° |
| 2026-04-22 11:05 | 55.78951 | 37.15402 | 10713 ft | 319 kts | 181° |
| 2026-04-22 11:05 | 55.76698 | 37.15360 | 11400 ft | 326 kts | 181° |
| 2026-04-22 11:05 | 55.74421 | 37.15303 | 12154 ft | 330 kts | 181° |
| 2026-04-22 11:05 | 55.72107 | 37.15236 | 12893 ft | 335 kts | 181° |
| 2026-04-22 11:06 | 55.69765 | 37.15167 | 13625 ft | 339 kts | 181° |
| 2026-04-22 11:06 | 55.67390 | 37.15101 | 14251 ft | 344 kts | 181° |
| 2026-04-22 11:06 | 55.64982 | 37.15038 | 14865 ft | 349 kts | 181° |
| 2026-04-22 11:06 | 55.62533 | 37.14973 | 15479 ft | 354 kts | 181° |
| 2026-04-22 11:07 | 55.60083 | 37.14908 | 16092 ft | 358 kts | 180° |
| 2026-04-22 11:07 | 55.57580 | 37.14842 | 16717 ft | 362 kts | 180° |
| 2026-04-22 11:07 | 55.55045 | 37.14772 | 17305 ft | 366 kts | 180° |
| 2026-04-22 11:07 | 55.52476 | 37.14706 | 17886 ft | 371 kts | 180° |
| 2026-04-22 11:08 | 55.49886 | 37.14640 | 18407 ft | 375 kts | 180° |
| 2026-04-22 11:08 | 55.47258 | 37.14592 | 18919 ft | 379 kts | 178° |
| 2026-04-22 11:08 | 55.44634 | 37.15100 | 19425 ft | 381 kts | 166° |
| 2026-04-22 11:08 | 55.42094 | 37.16453 | 19947 ft | 382 kts | 155° |
| 2026-04-22 11:09 | 55.39726 | 37.18563 | 20470 ft | 383 kts | 147° |
| 2026-04-22 11:09 | 55.37402 | 37.20897 | 20982 ft | 386 kts | 147° |
| 2026-04-22 11:09 | 55.35061 | 37.23238 | 21488 ft | 389 kts | 147° |
| 2026-04-22 11:09 | 55.32692 | 37.25597 | 21999 ft | 393 kts | 147° |
| 2026-04-22 11:10 | 55.30300 | 37.27966 | 22492 ft | 396 kts | 147° |
| 2026-04-22 11:10 | 55.27888 | 37.30347 | 22979 ft | 399 kts | 147° |
| 2026-04-22 11:10 | 55.25458 | 37.32739 | 23486 ft | 402 kts | 147° |
| 2026-04-22 11:10 | 55.23007 | 37.35148 | 23892 ft | 405 kts | 147° |
| 2026-04-22 11:11 | 55.20543 | 37.37575 | 24291 ft | 408 kts | 146° |
| 2026-04-22 11:11 | 55.18071 | 37.40042 | 24681 ft | 411 kts | 146° |
| 2026-04-22 11:11 | 55.15584 | 37.42546 | 25070 ft | 413 kts | 146° |
| 2026-04-22 11:11 | 55.13083 | 37.45076 | 25466 ft | 416 kts | 145° |
| 2026-04-22 11:12 | 55.10571 | 37.47617 | 25845 ft | 418 kts | 145° |
| 2026-04-22 11:12 | 55.08075 | 37.50135 | 26224 ft | 421 kts | 145° |
| 2026-04-22 11:12 | 55.05528 | 37.52693 | 26617 ft | 424 kts | 146° |
| 2026-04-22 11:12 | 55.02919 | 37.55144 | 26983 ft | 428 kts | 148° |
| 2026-04-22 11:13 | 55.00230 | 37.57455 | 27386 ft | 432 kts | 149° |
| 2026-04-22 11:13 | 54.97501 | 37.59670 | 27790 ft | 434 kts | 150° |
| 2026-04-22 11:13 | 54.94749 | 37.61854 | 28157 ft | 436 kts | 150° |
| 2026-04-22 11:13 | 54.91960 | 37.64013 | 28506 ft | 440 kts | 152° |
| 2026-04-22 11:14 | 54.89125 | 37.66069 | 28845 ft | 443 kts | 153° |
| 2026-04-22 11:14 | 54.86249 | 37.68068 | 29183 ft | 446 kts | 153° |
| 2026-04-22 11:14 | 54.83346 | 37.70053 | 29520 ft | 449 kts | 153° |
| 2026-04-22 11:14 | 54.80434 | 37.72047 | 29844 ft | 452 kts | 153° |
| 2026-04-22 11:15 | 54.77505 | 37.74072 | 30129 ft | 454 kts | 153° |
| 2026-04-22 11:15 | 54.74567 | 37.76125 | 30426 ft | 455 kts | 153° |
| 2026-04-22 11:15 | 54.71623 | 37.78198 | 30780 ft | 456 kts | 152° |
| 2026-04-22 11:15 | 54.68720 | 37.80245 | 31112 ft | 457 kts | 154° |
| 2026-04-22 11:16 | 54.65661 | 37.81910 | 31424 ft | 464 kts | 163° |
| 2026-04-22 11:16 | 54.62453 | 37.82799 | 31615 ft | 473 kts | 172° |
| 2026-04-22 11:16 | 54.59139 | 37.83044 | 31749 ft | 479 kts | 175° |
| 2026-04-22 11:16 | 54.55799 | 37.83239 | 31879 ft | 483 kts | 175° |
| 2026-04-22 11:17 | 54.52423 | 37.83436 | 32064 ft | 487 kts | 175° |
| 2026-04-22 11:17 | 54.49039 | 37.83834 | 32347 ft | 484 kts | 168° |
| 2026-04-22 11:17 | 54.45762 | 37.85008 | 32694 ft | 479 kts | 160° |
| 2026-04-22 11:17 | 54.42651 | 37.86948 | 33049 ft | 473 kts | 152° |
| 2026-04-22 11:18 | 54.39744 | 37.89539 | 33396 ft | 469 kts | 147° |
| 2026-04-22 11:18 | 54.36886 | 37.92239 | 33763 ft | 469 kts | 148° |
| 2026-04-22 11:18 | 54.34022 | 37.94919 | 34052 ft | 468 kts | 149° |
| 2026-04-22 11:18 | 54.31163 | 37.97575 | 34333 ft | 467 kts | 149° |
| 2026-04-22 11:19 | 54.28339 | 38.00194 | 34595 ft | 467 kts | 149° |
| 2026-04-22 11:19 | 54.25478 | 38.02844 | 34842 ft | 466 kts | 149° |
| 2026-04-22 11:19 | 54.22634 | 38.05480 | 35093 ft | 466 kts | 149° |
| 2026-04-22 11:19 | 54.19783 | 38.08124 | 35336 ft | 465 kts | 149° |
| 2026-04-22 11:20 | 54.16945 | 38.10755 | 35582 ft | 465 kts | 149° |
| 2026-04-22 11:20 | 54.14097 | 38.13389 | 35801 ft | 465 kts | 149° |
| 2026-04-22 11:20 | 54.11256 | 38.16013 | 36035 ft | 464 kts | 150° |
| 2026-04-22 11:20 | 54.08412 | 38.18631 | 36261 ft | 464 kts | 150° |
| 2026-04-22 11:21 | 54.05574 | 38.21240 | 36478 ft | 464 kts | 150° |
| 2026-04-22 11:21 | 54.02736 | 38.23845 | 36683 ft | 463 kts | 150° |
| 2026-04-22 11:21 | 53.99889 | 38.26456 | 36786 ft | 465 kts | 150° |
| 2026-04-22 11:22 | 53.94147 | 38.31723 | 36803 ft | 471 kts | 150° |
| 2026-04-22 11:22 | 53.88377 | 38.36995 | 36805 ft | 471 kts | 150° |
| 2026-04-22 11:23 | 53.82596 | 38.42241 | 36802 ft | 471 kts | 151° |
| 2026-04-22 11:23 | 53.76816 | 38.47471 | 36808 ft | 471 kts | 150° |
| 2026-04-22 11:24 | 53.71474 | 38.53776 | 36810 ft | 469 kts | 139° |
| 2026-04-22 11:24 | 53.66478 | 38.60752 | 36812 ft | 469 kts | 139° |
| 2026-04-22 11:25 | 53.61439 | 38.67734 | 36812 ft | 470 kts | 139° |
| 2026-04-22 11:25 | 53.56379 | 38.74723 | 36815 ft | 470 kts | 139° |
| 2026-04-22 11:26 | 53.51316 | 38.81675 | 36823 ft | 470 kts | 139° |
| 2026-04-22 11:26 | 53.46244 | 38.88623 | 36825 ft | 470 kts | 140° |
| 2026-04-22 11:27 | 53.40597 | 38.94173 | 36833 ft | 472 kts | 157° |
| 2026-04-22 11:27 | 53.34530 | 38.98390 | 36831 ft | 472 kts | 156° |
| 2026-04-22 11:28 | 53.28460 | 39.02632 | 36832 ft | 472 kts | 156° |
| 2026-04-22 11:28 | 53.22422 | 39.06843 | 36828 ft | 473 kts | 156° |
| 2026-04-22 11:29 | 53.16351 | 39.11055 | 36829 ft | 473 kts | 156° |
| 2026-04-22 11:29 | 53.10264 | 39.15250 | 36838 ft | 473 kts | 157° |
| 2026-04-22 11:30 | 53.04178 | 39.19447 | 36833 ft | 473 kts | 157° |
| 2026-04-22 11:30 | 52.98079 | 39.23622 | 36837 ft | 473 kts | 157° |
| 2026-04-22 11:31 | 52.91993 | 39.27785 | 36838 ft | 474 kts | 157° |
| 2026-04-22 11:31 | 52.85893 | 39.31965 | 36838 ft | 473 kts | 157° |
| 2026-04-22 11:32 | 52.79805 | 39.36121 | 36840 ft | 473 kts | 157° |
| 2026-04-22 11:32 | 52.73752 | 39.40221 | 36840 ft | 473 kts | 157° |
| 2026-04-22 11:33 | 52.67663 | 39.44334 | 36829 ft | 472 kts | 157° |
| 2026-04-22 11:33 | 52.61567 | 39.48440 | 36830 ft | 472 kts | 157° |
| 2026-04-22 11:34 | 52.55478 | 39.52536 | 36832 ft | 472 kts | 158° |
| 2026-04-22 11:34 | 52.49386 | 39.56615 | 36835 ft | 472 kts | 158° |
| 2026-04-22 11:35 | 52.43310 | 39.60738 | 36839 ft | 472 kts | 156° |
| 2026-04-22 11:35 | 52.37401 | 39.65409 | 36842 ft | 471 kts | 153° |
| 2026-04-22 11:36 | 52.31636 | 39.70386 | 36850 ft | 471 kts | 153° |
| 2026-04-22 11:36 | 52.25813 | 39.75308 | 36852 ft | 471 kts | 154° |
| 2026-04-22 11:37 | 52.19959 | 39.80073 | 36850 ft | 470 kts | 154° |
| 2026-04-22 11:37 | 52.14100 | 39.84804 | 36849 ft | 470 kts | 154° |
| 2026-04-22 11:38 | 52.08244 | 39.89548 | 36853 ft | 470 kts | 154° |
| 2026-04-22 11:38 | 51.99468 | 39.96649 | 36859 ft | 470 kts | 154° |
| 2026-04-22 11:39 | 51.93617 | 40.01386 | 36855 ft | 469 kts | 154° |
| 2026-04-22 11:39 | 51.87765 | 40.06112 | 36854 ft | 470 kts | 154° |
| 2026-04-22 11:40 | 51.81949 | 40.10803 | 36856 ft | 470 kts | 154° |
| 2026-04-22 11:40 | 51.76100 | 40.15518 | 36859 ft | 469 kts | 155° |
| 2026-04-22 11:41 | 51.70343 | 40.20465 | 36855 ft | 470 kts | 148° |
| 2026-04-22 11:41 | 51.64826 | 40.26160 | 36856 ft | 470 kts | 148° |
| 2026-04-22 11:42 | 51.59321 | 40.31847 | 36857 ft | 470 kts | 148° |
| 2026-04-22 11:42 | 51.53811 | 40.37516 | 36860 ft | 470 kts | 149° |
| 2026-04-22 11:43 | 51.48329 | 40.43134 | 36859 ft | 470 kts | 149° |
| 2026-04-22 11:43 | 51.42807 | 40.48768 | 36859 ft | 470 kts | 149° |
| 2026-04-22 11:44 | 51.37291 | 40.54392 | 36857 ft | 470 kts | 149° |
| 2026-04-22 11:44 | 51.32559 | 40.58768 | 36851 ft | 467 kts | 159° |
| 2026-04-22 11:45 | 51.26367 | 40.61396 | 36851 ft | 463 kts | 173° |
| 2026-04-22 11:45 | 51.19982 | 40.62878 | 36852 ft | 463 kts | 173° |
| 2026-04-22 11:46 | 51.13606 | 40.64419 | 36853 ft | 464 kts | 173° |
| 2026-04-22 11:46 | 51.07178 | 40.65994 | 36854 ft | 464 kts | 173° |
| 2026-04-22 11:47 | 51.00838 | 40.67529 | 36851 ft | 464 kts | 173° |
| 2026-04-22 11:47 | 50.94439 | 40.69031 | 36853 ft | 464 kts | 173° |
| 2026-04-22 11:48 | 50.88045 | 40.70531 | 36858 ft | 464 kts | 173° |
| 2026-04-22 11:48 | 50.81662 | 40.72044 | 36859 ft | 464 kts | 173° |
| 2026-04-22 11:49 | 50.75271 | 40.73565 | 36862 ft | 464 kts | 173° |
| 2026-04-22 11:49 | 50.68876 | 40.75078 | 36853 ft | 464 kts | 173° |
| 2026-04-22 11:50 | 50.62509 | 40.76762 | 36861 ft | 465 kts | 167° |
| 2026-04-22 11:50 | 50.56587 | 40.80903 | 36859 ft | 470 kts | 149° |
| 2026-04-22 11:51 | 50.51050 | 40.86370 | 36854 ft | 470 kts | 150° |
| 2026-04-22 11:51 | 50.45505 | 40.91812 | 36845 ft | 470 kts | 150° |
| 2026-04-22 11:52 | 50.39947 | 40.97232 | 36850 ft | 470 kts | 150° |
| 2026-04-22 11:52 | 50.34419 | 41.02592 | 36851 ft | 470 kts | 150° |
| 2026-04-22 11:53 | 50.28865 | 41.07996 | 36852 ft | 470 kts | 150° |
| 2026-04-22 11:53 | 50.23296 | 41.13391 | 36840 ft | 470 kts | 150° |
| 2026-04-22 11:54 | 50.17731 | 41.18766 | 36844 ft | 470 kts | 150° |
| 2026-04-22 11:54 | 50.12194 | 41.24107 | 36845 ft | 470 kts | 150° |
| 2026-04-22 11:55 | 50.06617 | 41.29460 | 36842 ft | 470 kts | 150° |
| 2026-04-22 11:55 | 50.01035 | 41.34791 | 36843 ft | 470 kts | 151° |
| 2026-04-22 11:56 | 49.95094 | 41.38820 | 36843 ft | 464 kts | 168° |
| 2026-04-22 11:56 | 49.88764 | 41.40602 | 36842 ft | 462 kts | 173° |
| 2026-04-22 11:57 | 49.82420 | 41.42271 | 36845 ft | 462 kts | 173° |
| 2026-04-22 11:57 | 49.76113 | 41.43936 | 36829 ft | 463 kts | 173° |
| 2026-04-22 11:58 | 49.69754 | 41.45610 | 36837 ft | 463 kts | 173° |
| 2026-04-22 11:58 | 49.63397 | 41.47263 | 36843 ft | 463 kts | 173° |
| 2026-04-22 11:59 | 49.57037 | 41.48905 | 36849 ft | 463 kts | 173° |
| 2026-04-22 11:59 | 49.50683 | 41.50550 | 36852 ft | 463 kts | 173° |
| 2026-04-22 12:00 | 49.44319 | 41.52200 | 36846 ft | 463 kts | 173° |
| 2026-04-22 12:00 | 49.37999 | 41.53839 | 36854 ft | 463 kts | 173° |
| 2026-04-22 12:01 | 49.31644 | 41.55471 | 36867 ft | 463 kts | 173° |
| 2026-04-22 12:01 | 49.25282 | 41.57100 | 36861 ft | 463 kts | 173° |
| 2026-04-22 12:02 | 49.18928 | 41.58733 | 36863 ft | 463 kts | 173° |
| 2026-04-22 12:02 | 49.12562 | 41.60353 | 36855 ft | 463 kts | 174° |
| 2026-04-22 12:03 | 49.06205 | 41.61972 | 36867 ft | 463 kts | 174° |
| 2026-04-22 12:03 | 48.99840 | 41.63589 | 36876 ft | 463 kts | 174° |
| 2026-04-22 12:04 | 48.93528 | 41.65185 | 36885 ft | 463 kts | 174° |
| 2026-04-22 12:04 | 48.87177 | 41.66789 | 36873 ft | 463 kts | 174° |
| 2026-04-22 12:05 | 48.80823 | 41.68393 | 36871 ft | 462 kts | 174° |
| 2026-04-22 12:05 | 48.74473 | 41.69992 | 36878 ft | 462 kts | 174° |
| 2026-04-22 12:06 | 48.68131 | 41.71580 | 36886 ft | 462 kts | 174° |
| 2026-04-22 12:06 | 48.61785 | 41.73174 | 36888 ft | 462 kts | 174° |
| 2026-04-22 12:07 | 48.55447 | 41.74754 | 36888 ft | 462 kts | 174° |
| 2026-04-22 12:07 | 48.49101 | 41.76333 | 36889 ft | 461 kts | 174° |
| 2026-04-22 12:08 | 48.42807 | 41.77887 | 36896 ft | 461 kts | 174° |
| 2026-04-22 12:08 | 48.36478 | 41.79454 | 36897 ft | 461 kts | 174° |
| 2026-04-22 12:09 | 48.30158 | 41.81228 | 36901 ft | 463 kts | 171° |
| 2026-04-22 12:09 | 48.23893 | 41.83545 | 36901 ft | 464 kts | 169° |
| 2026-04-22 12:10 | 48.17634 | 41.85965 | 36900 ft | 463 kts | 169° |
| 2026-04-22 12:10 | 48.11372 | 41.88247 | 36898 ft | 463 kts | 171° |
| 2026-04-22 12:11 | 48.05138 | 41.90436 | 36882 ft | 463 kts | 171° |
| 2026-04-22 12:11 | 47.98869 | 41.92647 | 36897 ft | 463 kts | 171° |
| 2026-04-22 12:12 | 47.92610 | 41.94874 | 36901 ft | 462 kts | 171° |
| 2026-04-22 12:12 | 47.86347 | 41.97096 | 36906 ft | 462 kts | 171° |
| 2026-04-22 12:13 | 47.80083 | 41.99302 | 36913 ft | 462 kts | 171° |
| 2026-04-22 12:13 | 47.73823 | 42.01509 | 36908 ft | 462 kts | 171° |
| 2026-04-22 12:14 | 47.67609 | 42.03699 | 36911 ft | 461 kts | 171° |
| 2026-04-22 12:14 | 47.61348 | 42.05885 | 36912 ft | 461 kts | 171° |
| 2026-04-22 12:15 | 47.55098 | 42.08057 | 36915 ft | 461 kts | 171° |
| 2026-04-22 12:15 | 47.48855 | 42.10234 | 36906 ft | 461 kts | 171° |
| 2026-04-22 12:16 | 47.42618 | 42.12405 | 36911 ft | 460 kts | 172° |
| 2026-04-22 12:16 | 47.36382 | 42.14569 | 36915 ft | 460 kts | 172° |
| 2026-04-22 12:17 | 47.30142 | 42.16729 | 36916 ft | 460 kts | 172° |
| 2026-04-22 12:17 | 47.23909 | 42.18878 | 36911 ft | 460 kts | 172° |
| 2026-04-22 12:18 | 47.17672 | 42.21022 | 36911 ft | 460 kts | 172° |
| 2026-04-22 12:18 | 47.11482 | 42.23153 | 36900 ft | 460 kts | 172° |
| 2026-04-22 12:19 | 47.05253 | 42.25288 | 36909 ft | 460 kts | 172° |
| 2026-04-22 12:19 | 46.99014 | 42.27306 | 36901 ft | 458 kts | 174° |
| 2026-04-22 12:20 | 46.92736 | 42.28838 | 36907 ft | 456 kts | 177° |
| 2026-04-22 12:20 | 46.86464 | 42.30208 | 36909 ft | 456 kts | 176° |
| 2026-04-22 12:21 | 46.80190 | 42.31662 | 36901 ft | 456 kts | 176° |
| 2026-04-22 12:21 | 46.73925 | 42.33185 | 36891 ft | 456 kts | 176° |
| 2026-04-22 12:22 | 46.67661 | 42.34774 | 36904 ft | 457 kts | 174° |
| 2026-04-22 12:22 | 46.61428 | 42.36753 | 36911 ft | 459 kts | 172° |
| 2026-04-22 12:23 | 46.55203 | 42.38901 | 36915 ft | 459 kts | 172° |
| 2026-04-22 12:23 | 46.49024 | 42.40972 | 36879 ft | 458 kts | 173° |
| 2026-04-22 12:24 | 46.42790 | 42.42953 | 36890 ft | 458 kts | 174° |
| 2026-04-22 12:24 | 46.36549 | 42.44922 | 36898 ft | 459 kts | 173° |
| 2026-04-22 12:25 | 46.30314 | 42.46926 | 36906 ft | 459 kts | 173° |
| 2026-04-22 12:25 | 46.24078 | 42.48932 | 36892 ft | 459 kts | 173° |
| 2026-04-22 12:26 | 46.17838 | 42.50912 | 36888 ft | 459 kts | 174° |
| 2026-04-22 12:26 | 46.11585 | 42.52888 | 36893 ft | 460 kts | 174° |
| 2026-04-22 12:27 | 46.05330 | 42.54845 | 36901 ft | 460 kts | 174° |
| 2026-04-22 12:27 | 45.99058 | 42.56704 | 36888 ft | 460 kts | 175° |
| 2026-04-22 12:28 | 45.92822 | 42.58525 | 36898 ft | 460 kts | 174° |
| 2026-04-22 12:28 | 45.86549 | 42.60379 | 36900 ft | 460 kts | 175° |
| 2026-04-22 12:29 | 45.81343 | 42.61917 | 36911 ft | 460 kts | 175° |
| 2026-04-22 12:29 | 45.75070 | 42.63764 | 36919 ft | 460 kts | 175° |
| 2026-04-22 12:30 | 45.65662 | 42.66533 | 36927 ft | 460 kts | 175° |
| 2026-04-22 12:31 | 45.59388 | 42.68375 | 36919 ft | 460 kts | 175° |
| 2026-04-22 12:31 | 45.53155 | 42.70194 | 36926 ft | 460 kts | 175° |
| 2026-04-22 12:32 | 45.46885 | 42.72016 | 36917 ft | 460 kts | 175° |
| 2026-04-22 12:32 | 45.37500 | 42.75090 | 36934 ft | 462 kts | 173° |
| 2026-04-22 12:33 | 45.31260 | 42.77362 | 36940 ft | 462 kts | 173° |
| 2026-04-22 12:33 | 45.25014 | 42.79576 | 36920 ft | 462 kts | 173° |
| 2026-04-22 12:34 | 45.18760 | 42.81730 | 36942 ft | 462 kts | 174° |
| 2026-04-22 12:34 | 45.12516 | 42.83865 | 36955 ft | 462 kts | 174° |
| 2026-04-22 12:35 | 45.06308 | 42.85999 | 36967 ft | 462 kts | 173° |
| 2026-04-22 12:35 | 45.00067 | 42.88146 | 36949 ft | 462 kts | 174° |
| 2026-04-22 12:36 | 44.93811 | 42.90289 | 36949 ft | 462 kts | 174° |
| 2026-04-22 12:36 | 44.87595 | 42.92415 | 36950 ft | 462 kts | 174° |
| 2026-04-22 12:37 | 44.81349 | 42.94560 | 36965 ft | 462 kts | 174° |
| 2026-04-22 12:37 | 44.75100 | 42.96708 | 36950 ft | 462 kts | 173° |
| 2026-04-22 12:38 | 44.68832 | 42.98845 | 36965 ft | 463 kts | 174° |
| 2026-04-22 12:38 | 44.62567 | 43.00973 | 36970 ft | 463 kts | 173° |
| 2026-04-22 12:39 | 44.53142 | 43.02537 | 36956 ft | 453 kts | 183° |
| 2026-04-22 12:40 | 44.46849 | 43.03144 | 36967 ft | 453 kts | 183° |
| 2026-04-22 12:40 | 44.40554 | 43.03754 | 36976 ft | 453 kts | 183° |
| 2026-04-22 12:41 | 44.34269 | 43.04361 | 36969 ft | 453 kts | 183° |
| 2026-04-22 12:41 | 44.27975 | 43.04968 | 36948 ft | 454 kts | 183° |
| 2026-04-22 12:42 | 44.21703 | 43.05629 | 36963 ft | 456 kts | 181° |
| 2026-04-22 12:42 | 44.15388 | 43.06703 | 36973 ft | 458 kts | 179° |
| 2026-04-22 12:43 | 44.09072 | 43.07961 | 36963 ft | 458 kts | 179° |
| 2026-04-22 12:43 | 44.02755 | 43.09143 | 36939 ft | 458 kts | 179° |
| 2026-04-22 12:44 | 43.96427 | 43.10248 | 36962 ft | 458 kts | 179° |
| 2026-04-22 12:44 | 43.90084 | 43.11352 | 36970 ft | 458 kts | 179° |
| 2026-04-22 12:45 | 43.83757 | 43.12456 | 36944 ft | 458 kts | 179° |
| 2026-04-22 12:45 | 43.77434 | 43.13565 | 36921 ft | 458 kts | 179° |
| 2026-04-22 12:46 | 43.71119 | 43.14679 | 36946 ft | 457 kts | 179° |
| 2026-04-22 12:46 | 43.64858 | 43.15776 | 36958 ft | 456 kts | 179° |
| 2026-04-22 12:47 | 43.58530 | 43.16887 | 36936 ft | 455 kts | 179° |
| 2026-04-22 12:47 | 43.52291 | 43.17970 | 36906 ft | 454 kts | 179° |
| 2026-04-22 12:48 | 43.46033 | 43.19059 | 36919 ft | 453 kts | 179° |
| 2026-04-22 12:48 | 43.39779 | 43.20155 | 36933 ft | 452 kts | 179° |
| 2026-04-22 12:49 | 43.33533 | 43.21243 | 36938 ft | 452 kts | 179° |
| 2026-04-22 12:49 | 43.27310 | 43.22339 | 36944 ft | 451 kts | 179° |
| 2026-04-22 12:50 | 43.21082 | 43.23429 | 36951 ft | 450 kts | 179° |
| 2026-04-22 12:50 | 43.14855 | 43.24516 | 36962 ft | 449 kts | 179° |
| 2026-04-22 12:51 | 43.08702 | 43.25591 | 36947 ft | 448 kts | 179° |
| 2026-04-22 12:51 | 43.02502 | 43.26663 | 36948 ft | 449 kts | 179° |
| 2026-04-22 12:52 | 42.96301 | 43.27723 | 36982 ft | 449 kts | 180° |
| 2026-04-22 12:52 | 42.90157 | 43.29801 | 36985 ft | 465 kts | 162° |
| 2026-04-22 12:53 | 42.84363 | 43.33893 | 36982 ft | 470 kts | 158° |
| 2026-04-22 12:53 | 42.78572 | 43.38045 | 36996 ft | 470 kts | 158° |
| 2026-04-22 12:54 | 42.72776 | 43.42181 | 37004 ft | 470 kts | 158° |
| 2026-04-22 12:54 | 42.66984 | 43.46312 | 37006 ft | 470 kts | 159° |
| 2026-04-22 12:55 | 42.61227 | 43.50413 | 36998 ft | 470 kts | 158° |
| 2026-04-22 12:55 | 42.55426 | 43.54546 | 36978 ft | 470 kts | 158° |
| 2026-04-22 12:56 | 42.49609 | 43.58678 | 36972 ft | 471 kts | 158° |
| 2026-04-22 12:56 | 42.43792 | 43.62797 | 36964 ft | 471 kts | 158° |
| 2026-04-22 12:57 | 42.37975 | 43.66899 | 36958 ft | 471 kts | 158° |
| 2026-04-22 12:57 | 42.32153 | 43.71006 | 36956 ft | 472 kts | 158° |
| 2026-04-22 12:58 | 42.26378 | 43.75086 | 36921 ft | 471 kts | 158° |
| 2026-04-22 12:58 | 42.23471 | 43.77135 | 36795 ft | 472 kts | 158° |
| 2026-04-22 12:58 | 42.20562 | 43.79177 | 36310 ft | 473 kts | 158° |
| 2026-04-22 12:58 | 42.17606 | 43.81244 | 35642 ft | 472 kts | 158° |
| 2026-04-22 12:59 | 42.14728 | 43.83257 | 35004 ft | 472 kts | 158° |
| 2026-04-22 12:59 | 42.11817 | 43.85293 | 34376 ft | 472 kts | 158° |
| 2026-04-22 12:59 | 42.08893 | 43.87333 | 33708 ft | 473 kts | 158° |
| 2026-04-22 12:59 | 42.05972 | 43.89371 | 32994 ft | 474 kts | 158° |
| 2026-04-22 13:00 | 42.03037 | 43.91418 | 32297 ft | 476 kts | 158° |
| 2026-04-22 13:00 | 42.00095 | 43.93471 | 31519 ft | 477 kts | 158° |
| 2026-04-22 13:00 | 41.97140 | 43.95533 | 30759 ft | 479 kts | 158° |
| 2026-04-22 13:00 | 41.94177 | 43.97597 | 30017 ft | 481 kts | 158° |
| 2026-04-22 13:01 | 41.91196 | 43.99668 | 29139 ft | 482 kts | 157° |
| 2026-04-22 13:01 | 41.88214 | 44.01736 | 28304 ft | 483 kts | 157° |
| 2026-04-22 13:01 | 41.85224 | 44.03806 | 27481 ft | 485 kts | 157° |
| 2026-04-22 13:01 | 41.82222 | 44.05881 | 26688 ft | 486 kts | 157° |
| 2026-04-22 13:02 | 41.79208 | 44.07963 | 25916 ft | 488 kts | 157° |
| 2026-04-22 13:02 | 41.76184 | 44.10051 | 25158 ft | 490 kts | 157° |
| 2026-04-22 13:02 | 41.73148 | 44.12146 | 24416 ft | 492 kts | 156° |
| 2026-04-22 13:02 | 41.70102 | 44.14247 | 23714 ft | 492 kts | 156° |
| 2026-04-22 13:03 | 41.67074 | 44.16333 | 22921 ft | 487 kts | 156° |
| 2026-04-22 13:03 | 41.64080 | 44.18402 | 22107 ft | 482 kts | 155° |
| 2026-04-22 13:03 | 41.61306 | 44.20895 | 21313 ft | 481 kts | 143° |
| 2026-04-22 13:03 | 41.58987 | 44.24093 | 20546 ft | 480 kts | 130° |
| 2026-04-22 13:04 | 41.57227 | 44.27859 | 19785 ft | 478 kts | 117° |
| 2026-04-22 13:04 | 41.56086 | 44.32012 | 19052 ft | 475 kts | 105° |
| 2026-04-22 13:04 | 41.55477 | 44.36323 | 18338 ft | 470 kts | 101° |
| 2026-04-22 13:04 | 41.54928 | 44.40553 | 17554 ft | 465 kts | 101° |
| 2026-04-22 13:05 | 41.54371 | 44.44786 | 16758 ft | 461 kts | 101° |
| 2026-04-22 13:05 | 41.53814 | 44.48982 | 15977 ft | 457 kts | 102° |
| 2026-04-22 13:05 | 41.53264 | 44.53136 | 15207 ft | 453 kts | 102° |
| 2026-04-22 13:05 | 41.52721 | 44.57252 | 14478 ft | 445 kts | 102° |
| 2026-04-22 13:06 | 41.52200 | 44.61216 | 13756 ft | 423 kts | 102° |
| 2026-04-22 13:06 | 41.51699 | 44.65008 | 12960 ft | 405 kts | 102° |
| 2026-04-22 13:06 | 41.51217 | 44.68636 | 12180 ft | 389 kts | 102° |
| 2026-04-22 13:06 | 41.50752 | 44.72130 | 11402 ft | 376 kts | 101° |
| 2026-04-22 13:07 | 41.50300 | 44.75497 | 10735 ft | 362 kts | 101° |
| 2026-04-22 13:07 | 41.49866 | 44.78714 | 10465 ft | 341 kts | 101° |
| 2026-04-22 13:07 | 41.49454 | 44.81768 | 10340 ft | 329 kts | 101° |
| 2026-04-22 13:07 | 41.49055 | 44.84724 | 10197 ft | 318 kts | 101° |
| 2026-04-22 13:08 | 41.48663 | 44.87612 | 9918 ft | 314 kts | 101° |
| 2026-04-22 13:08 | 41.48278 | 44.90426 | 9602 ft | 311 kts | 101° |
| 2026-04-22 13:08 | 41.47883 | 44.93293 | 9236 ft | 309 kts | 101° |
| 2026-04-22 13:08 | 41.47502 | 44.96061 | 8890 ft | 306 kts | 101° |
| 2026-04-22 13:09 | 41.47120 | 44.98835 | 8566 ft | 302 kts | 101° |
| 2026-04-22 13:09 | 41.46750 | 45.01543 | 8416 ft | 291 kts | 101° |
| 2026-04-22 13:09 | 41.46563 | 45.04171 | 8288 ft | 280 kts | 85° |
| 2026-04-22 13:09 | 41.47020 | 45.06627 | 8151 ft | 269 kts | 63° |
| 2026-04-22 13:10 | 41.48044 | 45.08659 | 7932 ft | 261 kts | 45° |
| 2026-04-22 13:10 | 41.49293 | 45.10405 | 7623 ft | 259 kts | 44° |
| 2026-04-22 13:10 | 41.50620 | 45.12034 | 7033 ft | 260 kts | 27° |
| 2026-04-22 13:10 | 41.52316 | 45.12526 | 6616 ft | 248 kts | 351° |
| 2026-04-22 13:11 | 41.53827 | 45.11634 | 6011 ft | 236 kts | 319° |
| 2026-04-22 13:11 | 41.55006 | 45.10154 | 5377 ft | 230 kts | 316° |
| 2026-04-22 13:11 | 41.56139 | 45.08691 | 4781 ft | 224 kts | 317° |
| 2026-04-22 13:11 | 41.57257 | 45.07277 | 4187 ft | 219 kts | 317° |
| 2026-04-22 13:12 | 41.58329 | 45.05928 | 3822 ft | 208 kts | 317° |
| 2026-04-22 13:12 | 41.59366 | 45.04623 | 3373 ft | 198 kts | 317° |
| 2026-04-22 13:12 | 41.60331 | 45.03409 | 3058 ft | 183 kts | 316° |
| 2026-04-22 13:12 | 41.61225 | 45.02284 | 2792 ft | 171 kts | 316° |
| 2026-04-22 13:13 | 41.62031 | 45.01268 | 2562 ft | 154 kts | 315° |
| 2026-04-22 13:13 | 41.62789 | 45.00304 | 2322 ft | 147 kts | 315° |
| 2026-04-22 13:13 | 41.63522 | 44.99365 | 2127 ft | 144 kts | 315° |
| 2026-04-22 13:13 | 41.64255 | 44.98453 | 2004 ft | 143 kts | 315° |
| 2026-04-22 13:14 | 41.64977 | 44.97535 | 1797 ft | 142 kts | 316° |
| 2026-04-22 13:14 | 41.65692 | 44.96641 | 1621 ft | 141 kts | 317° |
| 2026-04-22 13:14 | 41.66384 | 44.95778 | 1524 ft | 125 kts | 317° |
| 2026-04-22 13:14 | 41.66738 | 44.95330 | 1524 ft | 79 kts | 316° |
| 2026-04-22 13:15 | 41.66979 | 44.95029 | 1521 ft | 41 kts | 317° |
| 2026-04-22 13:15 | 41.67206 | 44.94738 | 1525 ft | 49 kts | 318° |
| 2026-04-22 13:15 | 41.67440 | 44.94450 | 1524 ft | 17 kts | 320° |
| 2026-04-22 13:15 | 41.67490 | 44.94407 | 1525 ft | 13 kts | 345° |
| 2026-04-22 13:16 | 41.67543 | 44.94476 | 1526 ft | 10 kts | 72° |
| 2026-04-22 13:16 | 41.67561 | 44.94552 | 1522 ft | 8 kts | 72° |
| 2026-04-22 13:16 | 41.67575 | 44.94612 | 1523 ft | 6 kts | 72° |
| 2026-04-22 13:16 | 41.67588 | 44.94664 | 1526 ft | 7 kts | 72° |
| 2026-04-22 13:17 | 41.67611 | 44.94757 | 1523 ft | 14 kts | 73° |
| 2026-04-22 13:17 | 41.67642 | 44.94894 | 1525 ft | 16 kts | 73° |
| 2026-04-22 13:17 | 41.67664 | 44.95027 | 1525 ft | 13 kts | 98° |
| 2026-04-22 13:17 | 41.67610 | 44.95117 | 1524 ft | 13 kts | 133° |
| 2026-04-22 13:18 | 41.67535 | 44.95227 | 1522 ft | 19 kts | 131° |
| 2026-04-22 13:18 | 41.67441 | 44.95371 | 1522 ft | 22 kts | 130° |
| 2026-04-22 13:18 | 41.67337 | 44.95525 | 1525 ft | 24 kts | 134° |
| 2026-04-22 13:18 | 41.67220 | 44.95690 | 1521 ft | 24 kts | 134° |
| 2026-04-22 13:19 | 41.67120 | 44.95824 | 1520 ft | 21 kts | 134° |
| 2026-04-22 13:19 | 41.67067 | 44.95914 | 1524 ft | 10 kts | 116° |
| 2026-04-22 13:19 | 41.67029 | 44.95985 | 1519 ft | 11 kts | 133° |
| 2026-04-22 13:19 | 41.66967 | 44.96074 | 1524 ft | 14 kts | 132° |
| 2026-04-22 13:20 | 41.66911 | 44.96156 | 1523 ft | 10 kts | 132° |
| 2026-04-22 13:20 | 41.66871 | 44.96222 | 1522 ft | 8 kts | 132° |
| 2026-04-22 13:20 | 41.66834 | 44.96275 | 1519 ft | 7 kts | 133° |
| 2026-04-22 13:20 | 41.66810 | 44.96323 | 1521 ft | 5 kts | 90° |
| 2026-04-22 13:21 | 41.66830 | 44.96353 | 1520 ft | 4 kts | 43° |
| 2026-04-22 13:21 | 41.66847 | 44.96374 | 1523 ft | 3 kts | 43° |
| 2026-04-22 13:21 | 41.66858 | 44.96388 | 1525 ft | 2 kts | 43° |
| 2026-04-22 13:21 | 41.66861 | 44.96391 | 1525 ft | 0 kts | 43° |